sensor_id;sensor_type;location;lat;lon;timestamp;P1;durP1;ratioP1;P2;durP2;ratioP2
10293;SDS011;5192;50.328;7.610;2023-03-01T00:01:41;13.20;;;8.93;;
10293;SDS011;5192;50.328;7.610;2023-03-01T00:04:06;13.77;;;9.63;;
10293;SDS011;5192;50.328;7.610;2023-03-01T00:06:32;13.57;;;9.67;;
10293;SDS011;5192;50.328;7.610;2023-03-01T00:08:59;11.90;;;8.87;;
10293;SDS011;5192;50.328;7.610;2023-03-01T00:11:28;12.23;;;8.90;;
10293;SDS011;5192;50.328;7.610;2023-03-01T00:13:58;11.80;;;9.27;;
10293;SDS011;5192;50.328;7.610;2023-03-01T00:16:45;14.37;;;9.43;;
10293;SDS011;5192;50.328;7.610;2023-03-01T00:19:17;16.67;;;9.87;;
10293;SDS011;5192;50.328;7.610;2023-03-01T00:21:45;17.90;;;10.70;;
10293;SDS011;5192;50.328;7.610;2023-03-01T00:24:12;13.27;;;9.30;;
10293;SDS011;5192;50.328;7.610;2023-03-01T00:26:38;12.43;;;10.03;;
10293;SDS011;5192;50.328;7.610;2023-03-01T00:29:05;17.60;;;9.67;;
10293;SDS011;5192;50.328;7.610;2023-03-01T00:31:33;15.93;;;10.00;;
10293;SDS011;5192;50.328;7.610;2023-03-01T00:34:03;14.27;;;9.63;;
10293;SDS011;5192;50.328;7.610;2023-03-01T00:36:33;13.17;;;9.53;;
10293;SDS011;5192;50.328;7.610;2023-03-01T00:39:01;14.17;;;9.57;;
10293;SDS011;5192;50.328;7.610;2023-03-01T00:41:29;13.90;;;10.10;;
10293;SDS011;5192;50.328;7.610;2023-03-01T00:43:57;12.77;;;9.13;;
10293;SDS011;5192;50.328;7.610;2023-03-01T00:46:25;13.73;;;9.93;;
10293;SDS011;5192;50.328;7.610;2023-03-01T00:48:51;13.37;;;10.00;;
10293;SDS011;5192;50.328;7.610;2023-03-01T00:51:24;15.13;;;9.77;;
10293;SDS011;5192;50.328;7.610;2023-03-01T00:53:53;14.30;;;10.03;;
10293;SDS011;5192;50.328;7.610;2023-03-01T00:56:23;14.23;;;10.03;;
10293;SDS011;5192;50.328;7.610;2023-03-01T00:58:50;13.23;;;9.87;;
10293;SDS011;5192;50.328;7.610;2023-03-01T01:01:22;12.60;;;9.20;;
10293;SDS011;5192;50.328;7.610;2023-03-01T01:04:02;13.10;;;9.27;;
10293;SDS011;5192;50.328;7.610;2023-03-01T01:06:35;14.13;;;10.03;;
10293;SDS011;5192;50.328;7.610;2023-03-01T01:09:05;12.77;;;8.97;;
10293;SDS011;5192;50.328;7.610;2023-03-01T01:11:44;10.93;;;8.50;;
10293;SDS011;5192;50.328;7.610;2023-03-01T01:14:13;14.27;;;9.73;;
10293;SDS011;5192;50.328;7.610;2023-03-01T01:16:39;14.13;;;9.40;;
10293;SDS011;5192;50.328;7.610;2023-03-01T01:19:08;12.67;;;9.40;;
10293;SDS011;5192;50.328;7.610;2023-03-01T01:21:36;11.23;;;8.73;;
10293;SDS011;5192;50.328;7.610;2023-03-01T01:24:04;12.97;;;9.40;;
10293;SDS011;5192;50.328;7.610;2023-03-01T01:26:31;14.50;;;9.40;;
10293;SDS011;5192;50.328;7.610;2023-03-01T01:29:01;14.57;;;9.53;;
10293;SDS011;5192;50.328;7.610;2023-03-01T01:31:29;12.80;;;9.53;;
10293;SDS011;5192;50.328;7.610;2023-03-01T01:33:58;14.60;;;9.20;;
10293;SDS011;5192;50.328;7.610;2023-03-01T01:36:25;14.47;;;9.60;;
10293;SDS011;5192;50.328;7.610;2023-03-01T01:38:53;14.23;;;8.87;;
10293;SDS011;5192;50.328;7.610;2023-03-01T01:41:21;14.70;;;9.50;;
10293;SDS011;5192;50.328;7.610;2023-03-01T01:43:49;13.90;;;9.40;;
10293;SDS011;5192;50.328;7.610;2023-03-01T01:46:36;12.87;;;9.00;;
10293;SDS011;5192;50.328;7.610;2023-03-01T01:52:34;17.87;;;10.43;;
10293;SDS011;5192;50.328;7.610;2023-03-01T01:55:18;15.37;;;9.57;;
10293;SDS011;5192;50.328;7.610;2023-03-01T01:57:49;15.37;;;10.07;;
10293;SDS011;5192;50.328;7.610;2023-03-01T02:00:24;13.43;;;9.57;;
10293;SDS011;5192;50.328;7.610;2023-03-01T02:03:02;16.07;;;9.70;;
10293;SDS011;5192;50.328;7.610;2023-03-01T02:08:25;14.67;;;9.50;;
10293;SDS011;5192;50.328;7.610;2023-03-01T02:10:57;15.53;;;10.03;;
10293;SDS011;5192;50.328;7.610;2023-03-01T02:13:31;15.27;;;10.23;;
10293;SDS011;5192;50.328;7.610;2023-03-01T02:15:58;14.37;;;10.03;;
10293;SDS011;5192;50.328;7.610;2023-03-01T02:18:25;13.87;;;10.13;;
10293;SDS011;5192;50.328;7.610;2023-03-01T02:23:45;16.33;;;10.33;;
10293;SDS011;5192;50.328;7.610;2023-03-01T02:28:59;16.27;;;10.50;;
10293;SDS011;5192;50.328;7.610;2023-03-01T02:31:26;17.80;;;11.60;;
10293;SDS011;5192;50.328;7.610;2023-03-01T02:34:16;17.57;;;11.60;;
10293;SDS011;5192;50.328;7.610;2023-03-01T02:39:44;18.17;;;12.07;;
10293;SDS011;5192;50.328;7.610;2023-03-01T02:42:31;17.40;;;11.40;;
10293;SDS011;5192;50.328;7.610;2023-03-01T02:45:03;15.60;;;11.03;;
10293;SDS011;5192;50.328;7.610;2023-03-01T02:47:29;17.10;;;11.50;;
10293;SDS011;5192;50.328;7.610;2023-03-01T02:49:56;15.30;;;10.87;;
10293;SDS011;5192;50.328;7.610;2023-03-01T02:52:33;15.70;;;11.10;;
10293;SDS011;5192;50.328;7.610;2023-03-01T02:55:13;17.37;;;11.53;;
10293;SDS011;5192;50.328;7.610;2023-03-01T02:57:43;19.57;;;11.60;;
10293;SDS011;5192;50.328;7.610;2023-03-01T03:00:21;18.27;;;11.83;;
10293;SDS011;5192;50.328;7.610;2023-03-01T03:02:52;19.57;;;11.87;;
10293;SDS011;5192;50.328;7.610;2023-03-01T03:05:20;19.00;;;11.83;;
10293;SDS011;5192;50.328;7.610;2023-03-01T03:07:53;16.43;;;11.13;;
10293;SDS011;5192;50.328;7.610;2023-03-01T03:10:32;16.77;;;11.37;;
10293;SDS011;5192;50.328;7.610;2023-03-01T03:13:08;18.37;;;11.73;;
10293;SDS011;5192;50.328;7.610;2023-03-01T03:15:36;17.03;;;11.63;;
10293;SDS011;5192;50.328;7.610;2023-03-01T03:18:04;15.57;;;11.50;;
10293;SDS011;5192;50.328;7.610;2023-03-01T03:20:33;20.17;;;12.00;;
10293;SDS011;5192;50.328;7.610;2023-03-01T03:23:02;18.70;;;11.87;;
10293;SDS011;5192;50.328;7.610;2023-03-01T03:25:28;18.40;;;12.17;;
10293;SDS011;5192;50.328;7.610;2023-03-01T03:27:57;21.23;;;12.00;;
10293;SDS011;5192;50.328;7.610;2023-03-01T03:30:28;19.27;;;12.03;;
10293;SDS011;5192;50.328;7.610;2023-03-01T03:32:56;18.37;;;11.27;;
10293;SDS011;5192;50.328;7.610;2023-03-01T03:35:25;17.83;;;12.20;;
10293;SDS011;5192;50.328;7.610;2023-03-01T03:38:12;19.17;;;12.50;;
10293;SDS011;5192;50.328;7.610;2023-03-01T03:40:43;18.07;;;12.43;;
10293;SDS011;5192;50.328;7.610;2023-03-01T03:43:14;18.17;;;11.87;;
10293;SDS011;5192;50.328;7.610;2023-03-01T03:45:44;19.30;;;13.60;;
10293;SDS011;5192;50.328;7.610;2023-03-01T03:48:12;18.43;;;11.93;;
10293;SDS011;5192;50.328;7.610;2023-03-01T03:50:40;21.03;;;13.07;;
10293;SDS011;5192;50.328;7.610;2023-03-01T03:53:13;20.27;;;12.97;;
10293;SDS011;5192;50.328;7.610;2023-03-01T03:55:39;17.77;;;12.20;;
10293;SDS011;5192;50.328;7.610;2023-03-01T03:58:10;21.53;;;12.80;;
10293;SDS011;5192;50.328;7.610;2023-03-01T04:00:41;18.70;;;12.10;;
10293;SDS011;5192;50.328;7.610;2023-03-01T04:03:10;19.27;;;12.93;;
10293;SDS011;5192;50.328;7.610;2023-03-01T04:05:42;18.97;;;12.80;;
10293;SDS011;5192;50.328;7.610;2023-03-01T04:08:10;20.83;;;13.37;;
10293;SDS011;5192;50.328;7.610;2023-03-01T04:10:38;20.80;;;13.00;;
10293;SDS011;5192;50.328;7.610;2023-03-01T04:13:10;20.07;;;13.03;;
10293;SDS011;5192;50.328;7.610;2023-03-01T04:15:40;19.83;;;12.87;;
10293;SDS011;5192;50.328;7.610;2023-03-01T04:18:08;19.67;;;12.60;;
10293;SDS011;5192;50.328;7.610;2023-03-01T04:20:39;22.87;;;14.33;;
10293;SDS011;5192;50.328;7.610;2023-03-01T04:23:07;19.70;;;12.93;;
10293;SDS011;5192;50.328;7.610;2023-03-01T04:25:56;20.53;;;12.60;;
10293;SDS011;5192;50.328;7.610;2023-03-01T04:28:31;18.80;;;13.33;;
10293;SDS011;5192;50.328;7.610;2023-03-01T04:31:12;19.10;;;12.23;;
10293;SDS011;5192;50.328;7.610;2023-03-01T04:36:21;17.93;;;11.83;;
10293;SDS011;5192;50.328;7.610;2023-03-01T04:38:48;20.40;;;13.13;;
10293;SDS011;5192;50.328;7.610;2023-03-01T04:41:17;20.47;;;12.90;;
10293;SDS011;5192;50.328;7.610;2023-03-01T04:43:45;20.30;;;13.37;;
10293;SDS011;5192;50.328;7.610;2023-03-01T04:46:13;19.20;;;13.30;;
10293;SDS011;5192;50.328;7.610;2023-03-01T04:48:45;20.27;;;13.20;;
10293;SDS011;5192;50.328;7.610;2023-03-01T04:51:13;21.63;;;13.67;;
10293;SDS011;5192;50.328;7.610;2023-03-01T04:53:42;22.97;;;13.77;;
10293;SDS011;5192;50.328;7.610;2023-03-01T04:56:09;20.63;;;12.93;;
10293;SDS011;5192;50.328;7.610;2023-03-01T04:58:36;20.20;;;13.30;;
10293;SDS011;5192;50.328;7.610;2023-03-01T05:01:13;22.80;;;13.07;;
10293;SDS011;5192;50.328;7.610;2023-03-01T05:03:42;17.67;;;11.90;;
10293;SDS011;5192;50.328;7.610;2023-03-01T05:06:12;19.73;;;12.60;;
10293;SDS011;5192;50.328;7.610;2023-03-01T05:08:42;22.37;;;13.40;;
10293;SDS011;5192;50.328;7.610;2023-03-01T05:11:10;24.07;;;14.17;;
10293;SDS011;5192;50.328;7.610;2023-03-01T05:13:39;21.10;;;13.17;;
10293;SDS011;5192;50.328;7.610;2023-03-01T05:16:07;20.83;;;13.60;;
10293;SDS011;5192;50.328;7.610;2023-03-01T05:18:41;22.50;;;14.30;;
10293;SDS011;5192;50.328;7.610;2023-03-01T05:21:11;22.53;;;13.30;;
10293;SDS011;5192;50.328;7.610;2023-03-01T05:23:39;20.67;;;13.83;;
10293;SDS011;5192;50.328;7.610;2023-03-01T05:26:06;19.97;;;13.30;;
10293;SDS011;5192;50.328;7.610;2023-03-01T05:28:35;20.87;;;14.30;;
10293;SDS011;5192;50.328;7.610;2023-03-01T05:31:00;24.03;;;14.27;;
10293;SDS011;5192;50.328;7.610;2023-03-01T05:33:28;22.73;;;14.87;;
10293;SDS011;5192;50.328;7.610;2023-03-01T05:35:53;22.47;;;14.50;;
10293;SDS011;5192;50.328;7.610;2023-03-01T05:38:28;23.73;;;13.63;;
10293;SDS011;5192;50.328;7.610;2023-03-01T05:40:55;21.47;;;13.47;;
10293;SDS011;5192;50.328;7.610;2023-03-01T05:43:22;22.83;;;13.00;;
10293;SDS011;5192;50.328;7.610;2023-03-01T05:45:49;23.27;;;14.60;;
10293;SDS011;5192;50.328;7.610;2023-03-01T05:48:16;26.13;;;14.03;;
10293;SDS011;5192;50.328;7.610;2023-03-01T05:50:45;20.37;;;13.50;;
10293;SDS011;5192;50.328;7.610;2023-03-01T05:53:16;20.00;;;12.27;;
10293;SDS011;5192;50.328;7.610;2023-03-01T05:55:47;24.33;;;13.27;;
10293;SDS011;5192;50.328;7.610;2023-03-01T05:58:17;20.17;;;13.13;;
10293;SDS011;5192;50.328;7.610;2023-03-01T06:00:48;22.40;;;13.63;;
10293;SDS011;5192;50.328;7.610;2023-03-01T06:03:19;23.27;;;14.23;;
10293;SDS011;5192;50.328;7.610;2023-03-01T06:05:55;21.40;;;14.10;;
10293;SDS011;5192;50.328;7.610;2023-03-01T06:08:22;22.40;;;13.20;;
10293;SDS011;5192;50.328;7.610;2023-03-01T06:10:50;20.83;;;13.63;;
10293;SDS011;5192;50.328;7.610;2023-03-01T06:13:17;20.83;;;12.77;;
10293;SDS011;5192;50.328;7.610;2023-03-01T06:15:45;21.13;;;13.07;;
10293;SDS011;5192;50.328;7.610;2023-03-01T06:18:11;23.53;;;12.73;;
10293;SDS011;5192;50.328;7.610;2023-03-01T06:20:39;22.13;;;13.30;;
10293;SDS011;5192;50.328;7.610;2023-03-01T06:23:04;21.60;;;13.50;;
10293;SDS011;5192;50.328;7.610;2023-03-01T06:25:31;21.70;;;13.17;;
10293;SDS011;5192;50.328;7.610;2023-03-01T06:27:58;23.03;;;13.50;;
10293;SDS011;5192;50.328;7.610;2023-03-01T06:30:26;19.53;;;12.50;;
10293;SDS011;5192;50.328;7.610;2023-03-01T06:32:53;21.13;;;12.50;;
10293;SDS011;5192;50.328;7.610;2023-03-01T06:35:26;19.10;;;12.53;;
10293;SDS011;5192;50.328;7.610;2023-03-01T06:37:57;19.73;;;11.97;;
10293;SDS011;5192;50.328;7.610;2023-03-01T06:40:24;21.90;;;13.27;;
10293;SDS011;5192;50.328;7.610;2023-03-01T06:42:53;20.87;;;13.43;;
10293;SDS011;5192;50.328;7.610;2023-03-01T06:45:20;20.77;;;12.67;;
10293;SDS011;5192;50.328;7.610;2023-03-01T06:47:48;19.73;;;12.83;;
10293;SDS011;5192;50.328;7.610;2023-03-01T06:50:16;20.50;;;12.87;;
10293;SDS011;5192;50.328;7.610;2023-03-01T06:52:47;24.13;;;13.47;;
10293;SDS011;5192;50.328;7.610;2023-03-01T06:55:20;21.80;;;13.97;;
10293;SDS011;5192;50.328;7.610;2023-03-01T06:57:47;23.20;;;13.17;;
10293;SDS011;5192;50.328;7.610;2023-03-01T07:00:14;18.53;;;12.30;;
10293;SDS011;5192;50.328;7.610;2023-03-01T07:02:41;21.20;;;13.03;;
10293;SDS011;5192;50.328;7.610;2023-03-01T07:05:09;23.20;;;13.80;;
10293;SDS011;5192;50.328;7.610;2023-03-01T07:07:38;21.87;;;13.83;;
10293;SDS011;5192;50.328;7.610;2023-03-01T07:10:06;21.23;;;13.97;;
10293;SDS011;5192;50.328;7.610;2023-03-01T07:12:35;26.10;;;14.67;;
10293;SDS011;5192;50.328;7.610;2023-03-01T07:15:02;23.70;;;13.83;;
10293;SDS011;5192;50.328;7.610;2023-03-01T07:17:30;22.23;;;14.10;;
10293;SDS011;5192;50.328;7.610;2023-03-01T07:19:56;22.67;;;14.47;;
10293;SDS011;5192;50.328;7.610;2023-03-01T07:22:23;24.33;;;14.00;;
10293;SDS011;5192;50.328;7.610;2023-03-01T07:24:49;24.43;;;15.43;;
10293;SDS011;5192;50.328;7.610;2023-03-01T07:27:26;26.97;;;15.47;;
10293;SDS011;5192;50.328;7.610;2023-03-01T07:29:51;24.37;;;15.27;;
10293;SDS011;5192;50.328;7.610;2023-03-01T07:32:20;23.40;;;14.67;;
10293;SDS011;5192;50.328;7.610;2023-03-01T07:34:46;25.30;;;15.70;;
10293;SDS011;5192;50.328;7.610;2023-03-01T07:37:14;24.03;;;15.60;;
10293;SDS011;5192;50.328;7.610;2023-03-01T07:39:41;25.07;;;14.17;;
10293;SDS011;5192;50.328;7.610;2023-03-01T07:42:08;24.57;;;15.27;;
10293;SDS011;5192;50.328;7.610;2023-03-01T07:44:36;24.97;;;15.53;;
10293;SDS011;5192;50.328;7.610;2023-03-01T07:47:03;23.10;;;14.73;;
10293;SDS011;5192;50.328;7.610;2023-03-01T07:49:31;21.50;;;15.23;;
10293;SDS011;5192;50.328;7.610;2023-03-01T07:51:59;24.07;;;15.67;;
10293;SDS011;5192;50.328;7.610;2023-03-01T07:54:25;24.20;;;15.80;;
10293;SDS011;5192;50.328;7.610;2023-03-01T07:56:52;26.77;;;17.20;;
10293;SDS011;5192;50.328;7.610;2023-03-01T07:59:21;25.27;;;16.07;;
10293;SDS011;5192;50.328;7.610;2023-03-01T08:01:49;27.50;;;16.77;;
10293;SDS011;5192;50.328;7.610;2023-03-01T08:04:15;23.97;;;15.70;;
10293;SDS011;5192;50.328;7.610;2023-03-01T08:06:42;25.73;;;16.57;;
10293;SDS011;5192;50.328;7.610;2023-03-01T08:09:09;28.37;;;16.37;;
10293;SDS011;5192;50.328;7.610;2023-03-01T08:11:35;24.60;;;16.43;;
10293;SDS011;5192;50.328;7.610;2023-03-01T08:14:01;25.90;;;16.23;;
10293;SDS011;5192;50.328;7.610;2023-03-01T08:16:29;24.17;;;16.33;;
10293;SDS011;5192;50.328;7.610;2023-03-01T08:18:55;27.80;;;16.40;;
10293;SDS011;5192;50.328;7.610;2023-03-01T08:21:27;26.47;;;16.17;;
10293;SDS011;5192;50.328;7.610;2023-03-01T08:23:55;23.57;;;15.57;;
10293;SDS011;5192;50.328;7.610;2023-03-01T08:26:22;27.27;;;15.23;;
10293;SDS011;5192;50.328;7.610;2023-03-01T08:28:49;25.03;;;15.03;;
10293;SDS011;5192;50.328;7.610;2023-03-01T08:31:22;24.63;;;15.33;;
10293;SDS011;5192;50.328;7.610;2023-03-01T08:33:57;24.70;;;15.83;;
10293;SDS011;5192;50.328;7.610;2023-03-01T08:36:28;23.47;;;15.73;;
10293;SDS011;5192;50.328;7.610;2023-03-01T08:38:57;25.00;;;15.83;;
10293;SDS011;5192;50.328;7.610;2023-03-01T08:41:25;23.37;;;14.97;;
10293;SDS011;5192;50.328;7.610;2023-03-01T08:43:53;23.90;;;15.43;;
10293;SDS011;5192;50.328;7.610;2023-03-01T08:46:34;24.50;;;14.67;;
10293;SDS011;5192;50.328;7.610;2023-03-01T08:49:15;23.50;;;14.67;;
10293;SDS011;5192;50.328;7.610;2023-03-01T08:51:44;24.70;;;16.70;;
10293;SDS011;5192;50.328;7.610;2023-03-01T08:54:12;25.37;;;16.10;;
10293;SDS011;5192;50.328;7.610;2023-03-01T08:56:47;28.57;;;15.77;;
10293;SDS011;5192;50.328;7.610;2023-03-01T08:59:14;26.40;;;15.67;;
10293;SDS011;5192;50.328;7.610;2023-03-01T09:01:42;25.73;;;15.53;;
10293;SDS011;5192;50.328;7.610;2023-03-01T09:04:10;25.47;;;14.90;;
10293;SDS011;5192;50.328;7.610;2023-03-01T09:06:41;28.43;;;15.20;;
10293;SDS011;5192;50.328;7.610;2023-03-01T09:09:13;26.73;;;16.83;;
10293;SDS011;5192;50.328;7.610;2023-03-01T09:11:42;30.83;;;17.40;;
10293;SDS011;5192;50.328;7.610;2023-03-01T09:14:11;25.73;;;16.37;;
10293;SDS011;5192;50.328;7.610;2023-03-01T09:16:39;24.43;;;15.50;;
10293;SDS011;5192;50.328;7.610;2023-03-01T09:19:06;27.07;;;16.40;;
10293;SDS011;5192;50.328;7.610;2023-03-01T09:21:34;25.03;;;15.40;;
10293;SDS011;5192;50.328;7.610;2023-03-01T09:24:01;22.57;;;15.77;;
10293;SDS011;5192;50.328;7.610;2023-03-01T09:26:29;22.33;;;15.27;;
10293;SDS011;5192;50.328;7.610;2023-03-01T09:28:54;22.77;;;15.57;;
10293;SDS011;5192;50.328;7.610;2023-03-01T09:31:24;24.40;;;16.43;;
10293;SDS011;5192;50.328;7.610;2023-03-01T09:33:52;23.80;;;15.67;;
10293;SDS011;5192;50.328;7.610;2023-03-01T09:36:23;24.07;;;15.63;;
10293;SDS011;5192;50.328;7.610;2023-03-01T09:38:55;27.57;;;16.27;;
10293;SDS011;5192;50.328;7.610;2023-03-01T09:44:27;27.60;;;16.87;;
10293;SDS011;5192;50.328;7.610;2023-03-01T09:46:58;26.67;;;17.03;;
10293;SDS011;5192;50.328;7.610;2023-03-01T09:49:30;26.53;;;16.97;;
10293;SDS011;5192;50.328;7.610;2023-03-01T09:52:19;27.83;;;17.40;;
10293;SDS011;5192;50.328;7.610;2023-03-01T09:55:10;23.83;;;15.63;;
10293;SDS011;5192;50.328;7.610;2023-03-01T09:57:41;21.67;;;15.83;;
10293;SDS011;5192;50.328;7.610;2023-03-01T10:06:29;24.00;;;15.67;;
10293;SDS011;5192;50.328;7.610;2023-03-01T10:11:48;27.60;;;16.07;;
10293;SDS011;5192;50.328;7.610;2023-03-01T10:14:39;24.07;;;16.60;;
10293;SDS011;5192;50.328;7.610;2023-03-01T10:17:45;26.43;;;16.30;;
10293;SDS011;5192;50.328;7.610;2023-03-01T10:20:19;24.47;;;15.70;;
10293;SDS011;5192;50.328;7.610;2023-03-01T10:22:49;24.03;;;16.93;;
10293;SDS011;5192;50.328;7.610;2023-03-01T10:25:22;23.27;;;16.40;;
10293;SDS011;5192;50.328;7.610;2023-03-01T10:27:55;24.43;;;16.53;;
10293;SDS011;5192;50.328;7.610;2023-03-01T10:30:39;23.53;;;16.17;;
10293;SDS011;5192;50.328;7.610;2023-03-01T10:33:17;20.87;;;15.63;;
10293;SDS011;5192;50.328;7.610;2023-03-01T10:35:44;21.73;;;15.17;;
10293;SDS011;5192;50.328;7.610;2023-03-01T10:38:12;24.43;;;16.17;;
10293;SDS011;5192;50.328;7.610;2023-03-01T10:41:26;20.07;;;14.73;;
10293;SDS011;5192;50.328;7.610;2023-03-01T10:43:43;19.17;;;13.20;;
10293;SDS011;5192;50.328;7.610;2023-03-01T10:51:50;16.37;;;12.40;;
10293;SDS011;5192;50.328;7.610;2023-03-01T10:57:04;15.73;;;13.20;;
10293;SDS011;5192;50.328;7.610;2023-03-01T10:59:34;16.10;;;12.37;;
10293;SDS011;5192;50.328;7.610;2023-03-01T11:05:16;16.37;;;12.43;;
10293;SDS011;5192;50.328;7.610;2023-03-01T11:07:51;14.10;;;11.50;;
10293;SDS011;5192;50.328;7.610;2023-03-01T11:10:20;16.87;;;13.13;;
10293;SDS011;5192;50.328;7.610;2023-03-01T11:16:03;15.13;;;11.60;;
10293;SDS011;5192;50.328;7.610;2023-03-01T11:18:33;15.80;;;12.33;;
10293;SDS011;5192;50.328;7.610;2023-03-01T11:21:00;15.37;;;12.37;;
10293;SDS011;5192;50.328;7.610;2023-03-01T11:23:30;15.17;;;12.27;;
10293;SDS011;5192;50.328;7.610;2023-03-01T11:26:02;17.17;;;12.33;;
10293;SDS011;5192;50.328;7.610;2023-03-01T11:28:36;14.70;;;11.70;;
10293;SDS011;5192;50.328;7.610;2023-03-01T11:31:07;12.97;;;11.03;;
10293;SDS011;5192;50.328;7.610;2023-03-01T11:45:12;13.77;;;11.80;;
10293;SDS011;5192;50.328;7.610;2023-03-01T11:55:58;15.00;;;11.87;;
10293;SDS011;5192;50.328;7.610;2023-03-01T12:04:54;12.87;;;11.47;;
10293;SDS011;5192;50.328;7.610;2023-03-01T12:10:29;13.70;;;11.33;;
10293;SDS011;5192;50.328;7.610;2023-03-01T12:16:09;11.77;;;10.37;;
10293;SDS011;5192;50.328;7.610;2023-03-01T12:24:26;11.20;;;10.00;;
10293;SDS011;5192;50.328;7.610;2023-03-01T12:47:37;12.03;;;9.47;;
10293;SDS011;5192;50.328;7.610;2023-03-01T12:50:22;13.13;;;9.97;;
10293;SDS011;5192;50.328;7.610;2023-03-01T12:52:58;10.97;;;9.00;;
10293;SDS011;5192;50.328;7.610;2023-03-01T13:06:37;9.40;;;8.13;;
10293;SDS011;5192;50.328;7.610;2023-03-01T13:11:54;9.23;;;8.17;;
10293;SDS011;5192;50.328;7.610;2023-03-01T13:16:55;9.87;;;8.07;;
10293;SDS011;5192;50.328;7.610;2023-03-01T13:22:30;10.20;;;8.07;;
10293;SDS011;5192;50.328;7.610;2023-03-01T13:25:11;9.87;;;8.27;;
10293;SDS011;5192;50.328;7.610;2023-03-01T13:27:44;8.97;;;8.07;;
10293;SDS011;5192;50.328;7.610;2023-03-01T13:30:58;9.10;;;7.70;;
10293;SDS011;5192;50.328;7.610;2023-03-01T13:35:57;10.73;;;8.13;;
10293;SDS011;5192;50.328;7.610;2023-03-01T13:41:11;8.97;;;7.47;;
10293;SDS011;5192;50.328;7.610;2023-03-01T13:43:40;8.87;;;7.97;;
10293;SDS011;5192;50.328;7.610;2023-03-01T13:46:08;11.17;;;8.30;;
10293;SDS011;5192;50.328;7.610;2023-03-01T13:48:53;8.90;;;7.30;;
10293;SDS011;5192;50.328;7.610;2023-03-01T13:51:25;7.40;;;6.60;;
10293;SDS011;5192;50.328;7.610;2023-03-01T13:53:55;7.40;;;6.70;;
10293;SDS011;5192;50.328;7.610;2023-03-01T14:01:56;6.37;;;5.77;;
10293;SDS011;5192;50.328;7.610;2023-03-01T14:04:32;7.00;;;6.30;;
10293;SDS011;5192;50.328;7.610;2023-03-01T14:09:51;8.13;;;6.60;;
10293;SDS011;5192;50.328;7.610;2023-03-01T14:15:42;7.23;;;6.47;;
10293;SDS011;5192;50.328;7.610;2023-03-01T14:18:34;8.37;;;5.93;;
10293;SDS011;5192;50.328;7.610;2023-03-01T14:21:24;7.03;;;5.80;;
10293;SDS011;5192;50.328;7.610;2023-03-01T14:23:52;5.87;;;5.33;;
10293;SDS011;5192;50.328;7.610;2023-03-01T14:26:22;8.13;;;6.17;;
10293;SDS011;5192;50.328;7.610;2023-03-01T14:28:49;6.80;;;6.03;;
10293;SDS011;5192;50.328;7.610;2023-03-01T14:34:03;9.37;;;6.17;;
10293;SDS011;5192;50.328;7.610;2023-03-01T14:36:32;6.90;;;5.40;;
10293;SDS011;5192;50.328;7.610;2023-03-01T14:39:00;8.27;;;5.90;;
10293;SDS011;5192;50.328;7.610;2023-03-01T14:41:34;6.63;;;5.93;;
10293;SDS011;5192;50.328;7.610;2023-03-01T14:44:02;7.27;;;5.87;;
10293;SDS011;5192;50.328;7.610;2023-03-01T14:46:36;7.23;;;6.07;;
10293;SDS011;5192;50.328;7.610;2023-03-01T14:49:10;7.40;;;5.80;;
10293;SDS011;5192;50.328;7.610;2023-03-01T14:52:05;9.07;;;5.40;;
10293;SDS011;5192;50.328;7.610;2023-03-01T14:54:45;6.93;;;5.77;;
10293;SDS011;5192;50.328;7.610;2023-03-01T14:57:31;8.57;;;5.80;;
10293;SDS011;5192;50.328;7.610;2023-03-01T14:59:59;6.90;;;6.03;;
10293;SDS011;5192;50.328;7.610;2023-03-01T15:02:31;7.40;;;6.00;;
10293;SDS011;5192;50.328;7.610;2023-03-01T15:05:03;6.50;;;5.30;;
10293;SDS011;5192;50.328;7.610;2023-03-01T15:07:36;7.73;;;6.10;;
10293;SDS011;5192;50.328;7.610;2023-03-01T15:10:06;7.77;;;5.80;;
10293;SDS011;5192;50.328;7.610;2023-03-01T15:12:47;7.40;;;5.50;;
10293;SDS011;5192;50.328;7.610;2023-03-01T15:18:06;7.57;;;5.60;;
10293;SDS011;5192;50.328;7.610;2023-03-01T15:21:22;7.80;;;6.00;;
10293;SDS011;5192;50.328;7.610;2023-03-01T15:26:52;8.03;;;5.63;;
10293;SDS011;5192;50.328;7.610;2023-03-01T15:29:33;6.90;;;5.77;;
10293;SDS011;5192;50.328;7.610;2023-03-01T15:41:27;8.37;;;5.80;;
10293;SDS011;5192;50.328;7.610;2023-03-01T15:44:29;5.67;;;5.00;;
10293;SDS011;5192;50.328;7.610;2023-03-01T15:46:58;9.30;;;5.70;;
10293;SDS011;5192;50.328;7.610;2023-03-01T15:52:13;6.30;;;5.50;;
10293;SDS011;5192;50.328;7.610;2023-03-01T15:55:10;7.10;;;5.43;;
10293;SDS011;5192;50.328;7.610;2023-03-01T16:00:52;6.37;;;5.20;;
10293;SDS011;5192;50.328;7.610;2023-03-01T16:03:23;6.23;;;5.43;;
10293;SDS011;5192;50.328;7.610;2023-03-01T16:05:48;6.20;;;5.60;;
10293;SDS011;5192;50.328;7.610;2023-03-01T16:08:17;7.07;;;5.60;;
10293;SDS011;5192;50.328;7.610;2023-03-01T16:10:45;6.47;;;5.37;;
10293;SDS011;5192;50.328;7.610;2023-03-01T16:13:12;7.10;;;5.20;;
10293;SDS011;5192;50.328;7.610;2023-03-01T16:15:38;7.37;;;6.07;;
10293;SDS011;5192;50.328;7.610;2023-03-01T16:18:06;7.23;;;5.90;;
10293;SDS011;5192;50.328;7.610;2023-03-01T16:20:36;6.93;;;5.53;;
10293;SDS011;5192;50.328;7.610;2023-03-01T16:23:06;7.00;;;5.77;;
10293;SDS011;5192;50.328;7.610;2023-03-01T16:25:35;6.97;;;5.50;;
10293;SDS011;5192;50.328;7.610;2023-03-01T16:28:04;5.53;;;4.93;;
10293;SDS011;5192;50.328;7.610;2023-03-01T16:30:37;7.53;;;5.60;;
10293;SDS011;5192;50.328;7.610;2023-03-01T16:33:06;7.90;;;5.60;;
10293;SDS011;5192;50.328;7.610;2023-03-01T16:35:38;7.30;;;5.70;;
10293;SDS011;5192;50.328;7.610;2023-03-01T16:38:06;7.00;;;5.57;;
10293;SDS011;5192;50.328;7.610;2023-03-01T16:40:35;8.93;;;6.00;;
10293;SDS011;5192;50.328;7.610;2023-03-01T16:43:02;7.17;;;5.73;;
10293;SDS011;5192;50.328;7.610;2023-03-01T16:45:34;8.50;;;6.00;;
10293;SDS011;5192;50.328;7.610;2023-03-01T16:48:03;9.70;;;6.60;;
10293;SDS011;5192;50.328;7.610;2023-03-01T16:50:30;7.57;;;5.90;;
10293;SDS011;5192;50.328;7.610;2023-03-01T16:52:57;7.83;;;5.83;;
10293;SDS011;5192;50.328;7.610;2023-03-01T16:55:24;6.40;;;5.40;;
10293;SDS011;5192;50.328;7.610;2023-03-01T16:57:52;7.03;;;5.20;;
10293;SDS011;5192;50.328;7.610;2023-03-01T17:00:19;6.67;;;5.50;;
10293;SDS011;5192;50.328;7.610;2023-03-01T17:02:49;7.00;;;5.73;;
10293;SDS011;5192;50.328;7.610;2023-03-01T17:05:18;7.40;;;5.40;;
10293;SDS011;5192;50.328;7.610;2023-03-01T17:07:47;8.53;;;5.50;;
10293;SDS011;5192;50.328;7.610;2023-03-01T17:10:17;9.30;;;6.40;;
10293;SDS011;5192;50.328;7.610;2023-03-01T17:12:45;7.73;;;6.03;;
10293;SDS011;5192;50.328;7.610;2023-03-01T17:15:15;7.33;;;5.97;;
10293;SDS011;5192;50.328;7.610;2023-03-01T17:17:43;8.40;;;5.10;;
10293;SDS011;5192;50.328;7.610;2023-03-01T17:20:11;6.47;;;5.60;;
10293;SDS011;5192;50.328;7.610;2023-03-01T17:22:37;7.93;;;5.57;;
10293;SDS011;5192;50.328;7.610;2023-03-01T17:25:06;7.77;;;5.23;;
10293;SDS011;5192;50.328;7.610;2023-03-01T17:27:40;6.50;;;5.10;;
10293;SDS011;5192;50.328;7.610;2023-03-01T17:30:08;7.87;;;5.70;;
10293;SDS011;5192;50.328;7.610;2023-03-01T17:32:37;6.27;;;4.87;;
10293;SDS011;5192;50.328;7.610;2023-03-01T17:35:04;7.03;;;5.17;;
10293;SDS011;5192;50.328;7.610;2023-03-01T17:37:31;7.77;;;5.47;;
10293;SDS011;5192;50.328;7.610;2023-03-01T17:39:58;7.07;;;5.37;;
10293;SDS011;5192;50.328;7.610;2023-03-01T17:42:25;6.73;;;4.80;;
10293;SDS011;5192;50.328;7.610;2023-03-01T17:44:51;7.43;;;5.50;;
10293;SDS011;5192;50.328;7.610;2023-03-01T17:47:18;5.77;;;4.80;;
10293;SDS011;5192;50.328;7.610;2023-03-01T17:49:46;6.70;;;5.37;;